Startpagina
METAR-TAF:

METAR-TAF

Vliegvelden :

Nampa, Idaho, Verenigde Staten

breedte: 43-34-53N, lengte: 116-31-23W, hoogte: 773 m

Actueel weer

Dit bericht is 22 minuten geleden gemaakt, om 11:15 UTC
Weinig wind
Temperatuur 20°C
Vochtigheid 37%
Druk 1017 hPa
Zicht: 16.1 km
Onbewolkt

METAR: KMAN 191115Z AUTO 00000KT 10SM CLR 20/05 A3003 RMK A01

Tijdstip: 05:37 (11:37 UTC)


TAF: ontbreekt

Waarnemingen en weersverwachtingen van meer dan 4000 vliegvelden (METAR en TAF).

De beschikbare stations zijn de gele en rode punten op de kaart.

Ga met uw muis naar het station om de naam te zien.

Klik dan om waarnemingen en weersverwachtingen te zien.

kaart wijzigen: klik op de groene knoppen met een zwart kruis om in te zoomen, op de groene knop met een streepje om uit te zoomen of op de groene pijlen voor aangrenzende kaarten.


METAR-TAF: